Time;durP1;ratioP1;P1;durP2;ratioP2;P2;SDS_P1;SDS_P2;PMS_P1;PMS_P2;Temp;Humidity;BMP_temperature;BMP_pressure;BME280_temperature;BME280_humidity;BME280_pressure;Samples;Min_cycle;Max_cycle;Signal;HPM_P1;HPM_P2
2023/07/31 00:01:47;;;;;;;14.18;12.10;;;588.80;2432.00;;;;;;5093007;28;20031;-77
2023/07/31 00:04:13;;;;;;;12.35;11.23;;;588.90;2432.00;;;;;;5093182;28;20110;-78
2023/07/31 00:06:39;;;;;;;13.25;11.95;;;589.10;2432.00;;;;;;5091966;28;20476;-77
2023/07/31 00:09:04;;;;;;;14.77;12.35;;;589.20;2432.00;;;;;;5092786;28;20032;-80
2023/07/31 00:11:30;;;;;;;13.38;11.95;;;589.20;2432.00;;;;;;5086095;28;20047;-80
2023/07/31 00:13:57;;;;;;;12.25;11.05;;;589.30;2432.00;;;;;;5073723;28;20462;-80
2023/07/31 00:16:23;;;;;;;14.00;12.40;;;589.40;2432.00;;;;;;5073764;28;20028;-78
2023/07/31 00:18:49;;;;;;;13.50;11.60;;;589.40;2432.00;;;;;;5072544;28;20024;-78
2023/07/31 00:21:15;;;;;;;14.32;10.93;;;589.20;2432.00;;;;;;5072048;28;20052;-77
2023/07/31 00:23:41;;;;;;;12.25;10.98;;;589.30;2432.00;;;;;;5072217;28;20112;-78
2023/07/31 00:26:06;;;;;;;12.93;9.95;;;589.30;2432.00;;;;;;5073395;28;20084;-80
2023/07/31 00:28:32;;;;;;;12.55;10.95;;;589.40;2432.00;;;;;;5072922;28;20021;-79
2023/07/31 00:30:58;;;;;;;10.55;9.35;;;589.40;2432.00;;;;;;5073405;28;20020;-80
2023/07/31 00:33:23;;;;;;;12.27;10.80;;;589.30;2432.00;;;;;;5072299;28;20472;-81
2023/07/31 00:35:49;;;;;;;11.50;10.20;;;589.40;2432.00;;;;;;5072043;28;20475;-80
2023/07/31 00:38:15;;;;;;;14.57;11.07;;;589.40;2432.00;;;;;;5072277;28;20024;-80
2023/07/31 00:40:41;;;;;;;11.68;10.48;;;589.20;2432.00;;;;;;5071348;28;20020;-80
2023/07/31 00:43:06;;;;;;;11.50;10.23;;;589.20;2432.00;;;;;;5072269;28;20025;-80
2023/07/31 00:45:42;;;;;;;11.77;10.57;;;589.10;2432.00;;;;;;5072536;28;20024;-81
2023/07/31 00:48:18;;;;;;;15.23;10.93;;;589.00;2432.00;;;;;;5071977;28;20494;-85
2023/07/31 00:51:06;;;;;;;13.80;11.45;;;588.90;2432.00;;;;;;5072417;28;20052;-81
2023/07/31 00:53:31;;;;;;;12.30;10.95;;;588.90;2432.00;;;;;;5072062;28;20029;-80
2023/07/31 00:55:58;;;;;;;12.20;10.98;;;588.90;2432.00;;;;;;5071783;28;20175;-78
2023/07/31 00:58:23;;;;;;;15.23;12.00;;;588.90;2432.00;;;;;;5072133;28;20028;-79
2023/07/31 01:00:50;;;;;;;15.60;11.73;;;589.00;2432.00;;;;;;5089903;28;20035;-78
2023/07/31 01:03:16;;;;;;;16.08;12.15;;;589.00;2432.00;;;;;;5092277;28;20020;-79
2023/07/31 01:06:01;;;;;;;15.35;12.88;;;589.00;2432.00;;;;;;5092296;28;20035;-79
2023/07/31 01:08:33;;;;;;;15.98;14.35;;;589.20;2432.00;;;;;;5092249;28;20024;-79
2023/07/31 01:11:07;;;;;;;18.90;14.00;;;589.00;2432.00;;;;;;5092858;28;20043;-79
2023/07/31 01:13:33;;;;;;;15.38;13.82;;;589.00;2432.00;;;;;;5092321;28;20427;-79
2023/07/31 01:15:59;;;;;;;17.70;14.13;;;589.00;2432.00;;;;;;5092866;28;20358;-79
2023/07/31 01:18:25;;;;;;;16.00;14.40;;;589.10;2432.00;;;;;;5091934;28;20456;-79
2023/07/31 01:21:08;;;;;;;21.45;13.88;;;589.10;2432.00;;;;;;5092016;28;20024;-79
2023/07/31 01:23:48;;;;;;;15.88;14.38;;;589.20;2432.00;;;;;;5092937;28;20073;-79
2023/07/31 01:26:36;;;;;;;14.88;13.48;;;589.10;2432.00;;;;;;5093179;28;20106;-79
2023/07/31 01:29:02;;;;;;;14.27;12.88;;;589.20;2432.00;;;;;;5093361;28;20028;-79
2023/07/31 01:31:30;;;;;;;14.68;12.63;;;589.00;2432.00;;;;;;5092893;28;20111;-79
2023/07/31 01:34:00;;;;;;;16.13;12.70;;;588.90;2432.00;;;;;;5092107;28;20039;-79
2023/07/31 01:36:27;;;;;;;15.50;13.15;;;588.80;2432.00;;;;;;5091932;28;20089;-79
2023/07/31 01:38:57;;;;;;;19.92;13.98;;;588.90;2432.00;;;;;;5091512;28;20024;-79
2023/07/31 01:41:23;;;;;;;13.48;12.10;;;588.90;2432.00;;;;;;5092027;28;20438;-79
2023/07/31 01:43:49;;;;;;;13.57;11.52;;;588.90;2432.00;;;;;;5091626;28;20051;-78
2023/07/31 01:46:14;;;;;;;12.27;11.15;;;588.80;2432.00;;;;;;5091684;28;20098;-80
2023/07/31 01:48:40;;;;;;;12.35;11.13;;;588.80;2432.00;;;;;;5091896;28;20488;-79
2023/07/31 01:51:06;;;;;;;12.95;11.05;;;588.90;2432.00;;;;;;5091541;28;20437;-79
2023/07/31 01:53:32;;;;;;;12.18;10.98;;;588.80;2432.00;;;;;;5096614;28;20035;-79
2023/07/31 01:55:58;;;;;;;12.70;11.45;;;588.80;2432.00;;;;;;5095459;28;20032;-79
2023/07/31 01:58:23;;;;;;;13.05;11.75;;;588.80;2432.00;;;;;;5095058;28;20024;-79
2023/07/31 02:00:49;;;;;;;12.65;11.35;;;588.90;2432.00;;;;;;5096302;28;20460;-79
2023/07/31 02:03:15;;;;;;;15.10;11.77;;;588.80;2432.00;;;;;;5096302;28;20024;-79
2023/07/31 02:05:45;;;;;;;13.32;10.38;;;588.90;2432.00;;;;;;5090528;28;20031;-79
2023/07/31 02:08:11;;;;;;;10.93;9.82;;;588.80;2432.00;;;;;;5076417;28;20028;-79
2023/07/31 02:10:37;;;;;;;11.50;10.30;;;588.80;2432.00;;;;;;5091518;28;20143;-79
2023/07/31 02:13:03;;;;;;;12.30;10.98;;;588.80;2432.00;;;;;;5093858;28;20031;-78
2023/07/31 02:15:30;;;;;;;11.48;9.90;;;588.80;2432.00;;;;;;5095196;28;20036;-78
2023/07/31 02:17:56;;;;;;;10.32;9.10;;;588.80;2432.00;;;;;;5112170;28;20024;-79
2023/07/31 02:20:22;;;;;;;12.98;10.73;;;588.80;2432.00;;;;;;5111698;28;20054;-79
2023/07/31 02:22:47;;;;;;;11.93;9.95;;;588.80;2432.00;;;;;;5096085;28;20024;-79
2023/07/31 02:25:13;;;;;;;12.60;10.77;;;564.10;2432.00;;;;;;5096195;28;20036;-79
2023/07/31 02:27:39;;;;;;;11.57;9.82;;;588.80;2432.00;;;;;;5094377;28;20417;-79
2023/07/31 02:30:05;;;;;;;9.95;8.95;;;588.80;2432.00;;;;;;5111926;28;20048;-79
2023/07/31 02:32:31;;;;;;;11.93;9.45;;;588.90;2432.00;;;;;;5111649;28;20053;-79
2023/07/31 02:34:57;;;;;;;9.57;8.45;;;588.90;2432.00;;;;;;5111458;28;20036;-79
2023/07/31 02:37:23;;;;;;;10.15;8.40;;;588.80;2432.00;;;;;;5111871;28;20112;-79
2023/07/31 02:39:49;;;;;;;10.25;9.23;;;588.80;2432.00;;;;;;5111337;28;20059;-79
2023/07/31 02:42:15;;;;;;;10.55;9.43;;;564.10;2432.00;;;;;;5111927;28;20060;-79
2023/07/31 02:44:40;;;;;;;11.85;9.43;;;564.10;2432.00;;;;;;5111865;28;20471;-79
2023/07/31 02:47:06;;;;;;;12.32;9.20;;;588.80;2432.00;;;;;;5095300;28;20488;-79
2023/07/31 02:49:32;;;;;;;11.57;9.77;;;588.80;2432.00;;;;;;5111463;28;20456;-79
2023/07/31 02:51:58;;;;;;;13.13;8.90;;;588.80;2432.00;;;;;;5111377;28;20092;-79
2023/07/31 02:54:24;;;;;;;10.48;9.48;;;588.80;2432.00;;;;;;5118149;27;20008;-79
2023/07/31 02:56:49;;;;;;;10.15;9.15;;;588.90;2432.00;;;;;;5119435;28;20028;-79
2023/07/31 02:59:15;;;;;;;10.63;9.18;;;588.80;2432.00;;;;;;5111486;28;20379;-79
2023/07/31 03:01:41;;;;;;;10.63;9.10;;;588.80;2432.00;;;;;;5111386;28;20375;-79
2023/07/31 03:04:07;;;;;;;11.32;8.93;;;588.90;2432.00;;;;;;5110510;28;20036;-78
2023/07/31 03:06:33;;;;;;;15.27;9.27;;;588.80;2432.00;;;;;;5095423;28;20744;-77
2023/07/31 03:08:58;;;;;;;11.07;9.98;;;564.10;2432.00;;;;;;5110792;28;20031;-79
2023/07/31 03:11:24;;;;;;;11.38;9.23;;;588.80;2432.00;;;;;;5111039;28;20552;-79
2023/07/31 03:13:50;;;;;;;12.35;10.52;;;564.10;2432.00;;;;;;5110862;28;20028;-77
2023/07/31 03:16:16;;;;;;;11.93;10.20;;;564.10;2432.00;;;;;;5094785;28;20166;-78
2023/07/31 03:18:43;;;;;;;11.25;10.05;;;564.10;2432.00;;;;;;5093583;28;20075;-79
2023/07/31 03:21:09;;;;;;;9.75;8.85;;;564.10;2432.00;;;;;;5093631;28;20533;-79
2023/07/31 03:23:34;;;;;;;10.52;9.43;;;564.10;2432.00;;;;;;5095086;28;20034;-79
2023/07/31 03:26:03;;;;;;;11.80;10.07;;;564.10;2432.00;;;;;;5095566;28;20099;-79
2023/07/31 03:28:29;;;;;;;12.32;11.05;;;564.10;2432.00;;;;;;5094001;28;20037;-79
2023/07/31 03:30:55;;;;;;;12.38;10.60;;;564.10;2432.00;;;;;;5094657;28;20059;-78
2023/07/31 03:33:21;;;;;;;11.73;10.63;;;564.00;2432.00;;;;;;5094664;28;20034;-79
2023/07/31 03:35:47;;;;;;;13.75;12.25;;;564.10;2432.00;;;;;;5093348;28;20111;-79
2023/07/31 03:38:13;;;;;;;13.13;11.55;;;564.00;2432.00;;;;;;5093457;28;20028;-77
2023/07/31 03:40:39;;;;;;;13.38;12.07;;;564.10;2432.00;;;;;;5094796;28;20024;-78
2023/07/31 03:43:05;;;;;;;13.23;11.82;;;564.10;2432.00;;;;;;5093188;28;20020;-78
2023/07/31 03:45:31;;;;;;;14.63;13.23;;;564.10;2432.00;;;;;;5094696;28;20051;-78
2023/07/31 03:47:57;;;;;;;15.75;14.13;;;564.10;2432.00;;;;;;5094572;28;20024;-78
2023/07/31 03:50:24;;;;;;;14.98;13.43;;;588.80;2432.00;;;;;;5092911;28;20035;-78
2023/07/31 03:52:50;;;;;;;16.10;13.77;;;588.80;2432.00;;;;;;5093177;28;20028;-77
2023/07/31 03:55:16;;;;;;;15.55;13.88;;;564.10;2432.00;;;;;;5094261;28;20099;-78
2023/07/31 03:57:42;;;;;;;15.43;13.63;;;564.10;2432.00;;;;;;5094311;28;20036;-78
2023/07/31 04:00:08;;;;;;;16.17;13.80;;;564.10;2432.00;;;;;;5093196;28;20027;-78
2023/07/31 04:02:34;;;;;;;15.10;13.43;;;589.00;2432.00;;;;;;5093080;28;20031;-77
2023/07/31 04:05:00;;;;;;;15.93;14.27;;;564.10;2432.00;;;;;;5092814;28;20032;-77
2023/07/31 04:07:25;;;;;;;15.95;14.30;;;564.10;2432.00;;;;;;5092889;28;20027;-78
2023/07/31 04:09:51;;;;;;;17.67;15.30;;;564.10;2432.00;;;;;;5092535;28;20109;-77
2023/07/31 04:12:17;;;;;;;16.58;13.40;;;564.10;2432.00;;;;;;5092580;28;20035;-77
2023/07/31 04:14:42;;;;;;;17.20;15.45;;;564.10;2432.00;;;;;;5092239;28;20035;-78
2023/07/31 04:17:08;;;;;;;16.98;15.27;;;564.10;2432.00;;;;;;5093489;28;20058;-77
2023/07/31 04:19:34;;;;;;;18.23;15.43;;;588.80;2432.00;;;;;;5093917;28;20031;-78
2023/07/31 04:22:00;;;;;;;15.50;14.07;;;588.80;2432.00;;;;;;5094171;28;20069;-77
2023/07/31 04:24:25;;;;;;;16.40;14.82;;;564.10;2432.00;;;;;;5093988;28;20048;-77
2023/07/31 04:26:52;;;;;;;17.13;15.35;;;564.10;2432.00;;;;;;5093963;28;20028;-78
2023/07/31 04:29:18;;;;;;;15.40;13.77;;;564.10;2432.00;;;;;;5092738;28;20593;-77
2023/07/31 04:31:44;;;;;;;15.48;13.85;;;563.90;2432.00;;;;;;5093803;28;20016;-77
2023/07/31 04:34:11;;;;;;;16.63;14.55;;;564.10;2432.00;;;;;;5092355;28;20035;-77
2023/07/31 04:36:37;;;;;;;16.00;14.05;;;588.80;2432.00;;;;;;5092476;28;20036;-77
2023/07/31 04:39:03;;;;;;;16.38;14.88;;;588.80;2432.00;;;;;;5092233;28;20105;-77
2023/07/31 04:41:29;;;;;;;15.88;14.27;;;588.80;2432.00;;;;;;5092575;28;20055;-77
2023/07/31 04:43:54;;;;;;;16.70;15.02;;;588.80;2432.00;;;;;;5092566;28;20115;-77
2023/07/31 04:46:20;;;;;;;16.98;15.27;;;588.80;2432.00;;;;;;5092164;28;20028;-78
2023/07/31 04:48:46;;;;;;;16.50;14.98;;;588.80;2432.00;;;;;;5092396;28;20511;-78
2023/07/31 04:51:12;;;;;;;21.27;16.40;;;564.10;2432.00;;;;;;5092486;28;20029;-77
2023/07/31 04:53:37;;;;;;;17.70;15.93;;;564.10;2432.00;;;;;;5093403;28;20110;-78
2023/07/31 04:56:04;;;;;;;18.98;15.82;;;564.10;2432.00;;;;;;5092393;28;20028;-77
2023/07/31 04:58:29;;;;;;;16.65;15.05;;;588.80;2432.00;;;;;;5093947;28;20085;-77
2023/07/31 05:00:55;;;;;;;17.17;15.48;;;588.90;2432.00;;;;;;5092065;28;20020;-77
2023/07/31 05:03:21;;;;;;;16.08;14.55;;;588.90;2432.00;;;;;;5092282;28;20057;-78
2023/07/31 05:05:47;;;;;;;14.95;13.27;;;589.00;2432.00;;;;;;5092267;28;20028;-77
2023/07/31 05:08:13;;;;;;;16.83;14.15;;;589.00;2432.00;;;;;;5093293;28;20028;-78
2023/07/31 05:10:39;;;;;;;18.08;13.50;;;589.10;2432.00;;;;;;5093108;28;20048;-77
2023/07/31 05:13:05;;;;;;;14.40;12.90;;;589.00;2432.00;;;;;;5073198;28;20082;-77
2023/07/31 05:15:31;;;;;;;15.77;14.20;;;589.00;2432.00;;;;;;5071787;28;20460;-77
2023/07/31 05:17:57;;;;;;;15.80;14.20;;;589.20;2432.00;;;;;;5072530;28;20031;-77
2023/07/31 05:20:22;;;;;;;14.68;13.38;;;589.20;2432.00;;;;;;5071803;28;20021;-78
2023/07/31 05:22:48;;;;;;;14.15;12.68;;;589.20;2432.00;;;;;;5071386;28;20024;-80
2023/07/31 05:25:14;;;;;;;13.70;12.30;;;589.30;2432.00;;;;;;5073270;28;20112;-78
2023/07/31 05:27:40;;;;;;;13.32;11.98;;;589.40;2432.00;;;;;;5075040;28;20032;-77
2023/07/31 05:30:06;;;;;;;14.25;12.77;;;589.50;2432.00;;;;;;5076964;28;20028;-77
2023/07/31 05:32:32;;;;;;;12.90;11.52;;;589.50;2432.00;;;;;;5075698;28;20060;-78
2023/07/31 05:34:58;;;;;;;12.93;11.55;;;589.60;2432.00;;;;;;5075053;28;20039;-79
2023/07/31 05:37:24;;;;;;;13.38;11.80;;;589.60;2432.00;;;;;;5075396;28;20032;-78
2023/07/31 05:39:50;;;;;;;13.75;12.35;;;589.60;2432.00;;;;;;5075419;28;20024;-79
2023/07/31 05:42:16;;;;;;;13.70;11.60;;;589.70;2432.00;;;;;;5075142;28;20027;-80
2023/07/31 05:44:42;;;;;;;15.13;12.00;;;589.70;2432.00;;;;;;5076573;28;20032;-78
2023/07/31 05:47:07;;;;;;;14.73;12.15;;;589.70;2432.00;;;;;;5076548;28;20033;-79
2023/07/31 05:49:33;;;;;;;13.05;11.25;;;589.70;2432.00;;;;;;5074996;28;20033;-78
2023/07/31 05:51:59;;;;;;;14.80;11.73;;;589.70;2432.00;;;;;;5075221;28;20376;-79
2023/07/31 05:54:25;;;;;;;13.65;10.75;;;589.70;2432.00;;;;;;5081900;28;20025;-77
2023/07/31 05:56:51;;;;;;;10.82;9.73;;;589.70;2432.00;;;;;;5092002;28;20036;-79
2023/07/31 05:59:17;;;;;;;11.82;10.50;;;589.70;2432.00;;;;;;5074989;28;20028;-79
2023/07/31 06:01:42;;;;;;;17.60;10.45;;;589.70;2432.00;;;;;;5075151;28;20028;-79
2023/07/31 06:04:08;;;;;;;12.40;10.68;;;614.40;2432.00;;;;;;5074720;28;20119;-81
2023/07/31 06:06:34;;;;;;;10.85;9.75;;;614.40;2432.00;;;;;;5074897;28;20055;-79
2023/07/31 06:09:00;;;;;;;17.42;9.95;;;614.50;2432.00;;;;;;5074806;28;20020;-79
2023/07/31 06:11:26;;;;;;;10.93;9.85;;;614.50;2432.00;;;;;;5074285;28;20395;-80
2023/07/31 06:13:51;;;;;;;12.20;10.15;;;614.50;2432.00;;;;;;5074895;28;20166;-79
2023/07/31 06:16:17;;;;;;;11.50;9.77;;;614.60;2432.00;;;;;;5074740;28;20032;-79
2023/07/31 06:18:43;;;;;;;11.00;9.85;;;614.60;2432.00;;;;;;5075747;28;20029;-79
2023/07/31 06:21:10;;;;;;;12.50;10.93;;;614.70;2432.00;;;;;;5074647;28;20047;-79
2023/07/31 06:23:36;;;;;;;11.10;10.00;;;614.80;2432.00;;;;;;5074583;28;20032;-79
2023/07/31 06:26:02;;;;;;;10.32;9.27;;;614.80;2432.00;;;;;;5075376;28;20032;-79
2023/07/31 06:28:31;;;;;;;11.90;9.68;;;614.90;2432.00;;;;;;5085899;28;20039;-80
2023/07/31 06:31:01;;;;;;;25.05;22.45;;;;;;;;;;5094484;28;20032;-79
2023/07/31 06:33:27;;;;;;;108.47;94.05;;;614.90;2432.00;;;;;;5095548;28;20027;-79
2023/07/31 06:35:53;;;;;;;41.78;31.77;;;614.80;2432.00;;;;;;5095911;28;20502;-79
2023/07/31 06:38:24;;;;;;;19.20;17.17;;;614.70;2432.00;;;;;;5094487;28;20532;-80
2023/07/31 06:40:49;;;;;;;13.98;12.57;;;614.70;2432.00;;;;;;5094658;28;20019;-80
2023/07/31 06:43:15;;;;;;;13.00;11.70;;;614.70;2432.00;;;;;;5094365;28;20379;-80
2023/07/31 06:45:41;;;;;;;13.05;11.75;;;614.80;2432.00;;;;;;5094128;28;20119;-80
2023/07/31 06:48:07;;;;;;;13.73;12.43;;;614.80;2432.00;;;;;;5094365;28;20035;-81
2023/07/31 06:50:33;;;;;;;13.98;12.55;;;614.70;2432.00;;;;;;5096061;28;20034;-80
2023/07/31 06:52:59;;;;;;;12.65;11.40;;;614.70;2432.00;;;;;;5095432;28;20028;-81
2023/07/31 06:55:26;;;;;;;12.93;11.68;;;614.80;2432.00;;;;;;5094185;28;20024;-80
2023/07/31 06:57:53;;;;;;;11.70;10.50;;;614.80;2432.00;;;;;;5082053;28;20032;-81
2023/07/31 07:00:20;;;;;;;12.20;11.00;;;615.00;2432.00;;;;;;5073586;28;20031;-80
2023/07/31 07:02:50;;;;;;;13.00;10.50;;;;;;;;;;5073954;28;20074;-81
2023/07/31 07:05:19;;;;;;;12.35;11.07;;;;;;;;;;5074853;28;20503;-81
2023/07/31 07:07:45;;;;;;;13.20;11.88;;;615.10;2432.00;;;;;;5073595;28;20077;-80
2023/07/31 07:10:11;;;;;;;12.90;11.40;;;615.00;2432.00;;;;;;5073489;28;20056;-80
2023/07/31 07:12:37;;;;;;;12.52;11.25;;;614.90;2432.00;;;;;;5073403;28;20028;-80
2023/07/31 07:15:03;;;;;;;12.05;10.77;;;614.90;2432.00;;;;;;5073259;28;20090;-80
2023/07/31 07:17:32;;;;;;;13.95;10.38;;;615.00;2432.00;;;;;;5073711;28;20028;-79
2023/07/31 07:19:59;;;;;;;11.85;10.65;;;615.30;2432.00;;;;;;5073244;28;20070;-80
2023/07/31 07:22:25;;;;;;;10.68;9.57;;;615.20;2432.00;;;;;;5075140;28;20024;-80
2023/07/31 07:24:51;;;;;;;11.60;10.40;;;640.00;2432.00;;;;;;5090442;28;20431;-81
2023/07/31 07:27:17;;;;;;;11.10;9.95;;;640.00;2432.00;;;;;;5073037;28;20043;-80
2023/07/31 07:29:43;;;;;;;14.52;9.68;;;640.00;2432.00;;;;;;5074755;28;20028;-80
2023/07/31 07:32:08;;;;;;;11.95;10.65;;;615.30;2432.00;;;;;;5074515;28;20024;-81
2023/07/31 07:34:34;;;;;;;11.20;10.05;;;615.30;2432.00;;;;;;5072913;28;20021;-80
2023/07/31 07:37:00;;;;;;;11.85;10.65;;;615.30;2432.00;;;;;;5073232;28;20037;-81
2023/07/31 07:39:26;;;;;;;11.32;10.13;;;615.30;2432.00;;;;;;5073110;28;20086;-81
2023/07/31 07:41:53;;;;;;;11.55;10.43;;;615.30;2432.00;;;;;;5072894;28;20024;-81
2023/07/31 07:44:18;;;;;;;11.52;10.38;;;615.20;2432.00;;;;;;5074150;28;20389;-80
2023/07/31 07:46:44;;;;;;;10.25;9.25;;;640.00;2432.00;;;;;;5074051;28;20031;-81
2023/07/31 07:49:10;;;;;;;11.48;10.32;;;640.20;2432.00;;;;;;5073592;28;20024;-81
2023/07/31 07:51:36;;;;;;;10.68;9.45;;;640.40;2432.00;;;;;;5072857;28;20024;-81
2023/07/31 07:54:02;;;;;;;9.98;8.73;;;640.40;2432.00;;;;;;5072882;28;20035;-80
2023/07/31 07:56:28;;;;;;;11.30;10.15;;;640.60;2432.00;;;;;;5073887;28;20370;-80
2023/07/31 07:58:54;;;;;;;9.88;8.85;;;640.90;2432.00;;;;;;5072922;28;20499;-80
2023/07/31 08:01:20;;;;;;;11.05;9.32;;;640.80;2432.00;;;;;;5072678;28;20028;-80
2023/07/31 08:03:50;;;;;;;11.23;9.52;;;640.60;2432.00;;;;;;5072756;28;20024;-80
2023/07/31 08:06:15;;;;;;;10.60;9.45;;;640.40;2432.00;;;;;;5074027;28;20032;-80
2023/07/31 08:08:42;;;;;;;10.45;9.45;;;;;;;;;;5076038;28;20025;-80
2023/07/31 08:11:08;;;;;;;11.38;9.55;;;;;;;;;;5077519;28;20048;-81
2023/07/31 08:13:36;;;;;;;11.02;9.73;;;640.40;2432.00;;;;;;5096540;28;20024;-80
2023/07/31 08:16:02;;;;;;;12.18;10.88;;;;;;;;;;5094037;28;20477;-80
2023/07/31 08:18:28;;;;;;;12.15;10.85;;;;;;;;;;5092691;28;20039;-80
2023/07/31 08:20:54;;;;;;;12.23;10.68;;;;;;;;;;5092699;28;20119;-80
2023/07/31 08:23:20;;;;;;;12.57;11.38;;;;;;;;;;5092447;28;20103;-81
2023/07/31 08:25:46;;;;;;;12.30;11.10;;;;;;;;;;5081214;28;20032;-80
2023/07/31 08:28:12;;;;;;;12.73;11.23;;;;;;;;;;5072451;28;20020;-80
2023/07/31 08:30:39;;;;;;;12.07;10.95;;;;;;;;;;5072050;28;20448;-80
2023/07/31 08:33:05;;;;;;;12.57;11.38;;;;;;;;;;5072416;28;20423;-80
2023/07/31 08:35:31;;;;;;;13.68;12.27;;;;;;;;;;5072364;28;20119;-80
2023/07/31 08:37:57;;;;;;;15.13;12.90;;;665.70;2432.00;;;;;;5072093;28;20039;-81
2023/07/31 08:40:23;;;;;;;14.48;12.98;;;;;;;;;;5072336;28;20025;-80
2023/07/31 08:42:50;;;;;;;13.55;12.13;;;;;;;;;;5072290;28;20525;-80
2023/07/31 08:45:17;;;;;;;14.20;12.80;;;;;;;;;;5081188;28;20056;-80
2023/07/31 08:47:45;;;;;;;11.93;10.73;;;;;;;;;;5072028;28;20020;-78
2023/07/31 08:50:13;;;;;;;12.50;10.45;;;;;;;;;;5075556;28;20026;-79
2023/07/31 08:52:39;;;;;;;12.10;10.93;;;666.40;2432.00;;;;;;5093236;28;20020;-80
2023/07/31 08:55:08;;;;;;;13.93;10.63;;;666.30;2432.00;;;;;;5092365;28;20384;-80
2023/07/31 08:57:35;;;;;;;10.02;8.88;;;;;;;;;;5092240;28;20365;-77
2023/07/31 09:00:09;;;;;;;9.13;7.55;;;691.60;2432.00;;;;;;5094034;28;20024;-79
2023/07/31 09:03:08;;;;;;;8.65;7.05;;;691.30;2432.00;;;;;;5094434;28;20084;-78
2023/07/31 09:05:36;;;;;;;7.88;7.00;;;691.30;2432.00;;;;;;5087368;28;20106;-76
2023/07/31 09:08:04;;;;;;;9.55;7.13;;;691.20;2432.00;;;;;;5096150;28;20056;-76
2023/07/31 09:10:30;;;;;;;7.65;6.93;;;666.50;2432.00;;;;;;5097077;28;20032;-77
2023/07/31 09:12:57;;;;;;;7.50;6.70;;;666.30;2432.00;;;;;;5095628;28;20078;-78
2023/07/31 09:15:24;;;;;;;8.40;7.50;;;666.30;2432.00;;;;;;5097544;28;20464;-77
2023/07/31 09:18:00;;;;;;;9.25;8.35;;;666.30;2432.00;;;;;;5097397;28;20028;-78
2023/07/31 09:20:26;;;;;;;9.68;8.77;;;666.20;2432.00;;;;;;5095750;28;20024;-78
2023/07/31 09:22:52;;;;;;;9.23;8.32;;;666.30;2432.00;;;;;;5096082;28;20032;-78
2023/07/31 09:25:19;;;;;;;11.93;9.30;;;666.50;2432.00;;;;;;5096878;28;20032;-77
2023/07/31 09:27:54;;;;;;;10.27;9.15;;;691.20;2432.00;;;;;;5095693;28;20035;-78
2023/07/31 09:30:21;;;;;;;10.30;9.30;;;666.50;2432.00;;;;;;5096070;28;20376;-78
2023/07/31 09:32:49;;;;;;;10.23;9.00;;;666.50;2432.00;;;;;;5095457;28;20081;-77
2023/07/31 09:35:22;;;;;;;9.70;8.80;;;691.20;2432.00;;;;;;5096766;28;20086;-78
2023/07/31 09:37:53;;;;;;;9.55;8.65;;;691.60;2432.00;;;;;;5095632;28;20028;-78
2023/07/31 09:40:30;;;;;;;9.60;8.70;;;691.90;2432.00;;;;;;5095389;28;20372;-78
2023/07/31 09:42:58;;;;;;;7.10;6.40;;;717.10;2432.00;;;;;;5095647;28;20105;-78
2023/07/31 09:45:25;;;;;;;11.35;7.70;;;717.10;2432.00;;;;;;5095576;28;20097;-79
2023/07/31 09:47:51;;;;;;;9.10;8.20;;;716.90;2432.00;;;;;;5096277;28;20107;-78
2023/07/31 09:50:17;;;;;;;8.90;8.07;;;716.80;2432.00;;;;;;5096850;28;20077;-78
2023/07/31 09:52:43;;;;;;;11.55;9.15;;;692.00;2432.00;;;;;;5096803;28;20028;-79
2023/07/31 09:55:10;;;;;;;9.07;8.18;;;691.90;2432.00;;;;;;5095101;28;20024;-79
2023/07/31 09:57:42;;;;;;;9.65;8.65;;;691.80;2432.00;;;;;;5094183;28;20032;-78
2023/07/31 10:00:09;;;;;;;8.63;7.75;;;691.70;2432.00;;;;;;5095438;28;20028;-79
2023/07/31 10:02:37;;;;;;;9.90;9.00;;;691.60;2432.00;;;;;;5094429;28;20032;-78
2023/07/31 10:05:03;;;;;;;9.77;8.77;;;;;;;;;;5094222;28;20112;-79
2023/07/31 10:07:31;;;;;;;10.40;9.25;;;691.50;2432.00;;;;;;5095040;28;20024;-79
2023/07/31 10:10:01;;;;;;;9.20;8.30;;;;;;;;;;5094741;28;20052;-79
2023/07/31 10:12:28;;;;;;;9.60;8.20;;;;;;;;;;5080777;28;20052;-80
2023/07/31 10:14:57;;;;;;;8.65;7.85;;;;;;;;;;5090890;28;20028;-79
2023/07/31 10:17:24;;;;;;;8.55;7.75;;;691.80;2432.00;;;;;;5095112;28;20054;-78
2023/07/31 10:19:50;;;;;;;8.45;7.43;;;691.70;2432.00;;;;;;5095107;28;20111;-78
2023/07/31 10:22:18;;;;;;;7.75;6.90;;;691.80;2432.00;;;;;;5094355;28;20020;-79
2023/07/31 10:24:45;;;;;;;7.35;6.65;;;;;;;;;;5094763;28;20090;-78
2023/07/31 10:27:11;;;;;;;7.30;6.60;;;;;;;;;;5094902;28;20034;-77
2023/07/31 10:29:41;;;;;;;6.78;5.65;;;;;;;;;;5094456;28;20504;-78
2023/07/31 10:32:12;;;;;;;7.10;5.68;;;;;;;;;;5094831;28;20064;-78
2023/07/31 10:34:40;;;;;;;6.97;4.85;;;;;;;;;;5094864;28;20043;-77
2023/07/31 10:37:25;;;;;;;4.60;3.60;;;;;;;;;;5095633;28;20077;-77
2023/07/31 10:39:57;;;;;;;4.32;3.38;;;;;;;;;;5095736;28;20463;-78
2023/07/31 10:42:34;;;;;;;5.45;3.42;;;;;;;;;;5094718;28;20051;-78
2023/07/31 10:45:05;;;;;;;7.40;2.95;;;717.10;2355.20;;;;;;5095568;28;20028;-76
2023/07/31 10:47:36;;;;;;;4.40;3.60;;;717.40;2329.60;;;;;;5095898;28;20399;-77
2023/07/31 10:50:21;;;;;;;4.32;3.17;;;717.70;2380.80;;;;;;5094034;28;20024;-77
2023/07/31 10:52:49;;;;;;;4.40;2.83;;;742.60;2304.00;;;;;;5094125;28;20024;-77
2023/07/31 10:55:28;;;;;;;4.35;2.70;;;742.80;2278.40;;;;;;5094181;28;20034;-77
2023/07/31 10:57:56;;;;;;;6.30;2.78;;;742.50;2252.80;;;;;;5094082;28;20369;-77
2023/07/31 11:00:25;;;;;;;3.90;2.90;;;742.40;2227.20;;;;;;5094679;28;20028;-77
2023/07/31 11:03:01;;;;;;;4.57;3.00;;;717.40;2252.80;;;;;;5094257;28;20101;-77
2023/07/31 11:05:46;;;;;;;4.68;3.65;;;717.40;2278.40;;;;;;5094836;28;20039;-78
2023/07/31 11:08:20;;;;;;;4.90;3.20;;;717.40;2304.00;;;;;;5094065;28;20024;-78
2023/07/31 11:10:47;;;;;;;4.50;3.35;;;717.30;2304.00;;;;;;5092121;28;20048;-78
2023/07/31 11:13:14;;;;;;;4.75;3.33;;;717.20;2355.20;;;;;;5093852;28;20051;-78
2023/07/31 11:15:40;;;;;;;4.50;3.55;;;717.50;2355.20;;;;;;5093813;28;20028;-78
2023/07/31 11:18:07;;;;;;;7.55;4.68;;;717.40;2380.80;;;;;;5093381;28;20032;-81
2023/07/31 11:20:34;;;;;;;6.10;4.75;;;717.50;2355.20;;;;;;5095144;28;20051;-80
2023/07/31 11:23:06;;;;;;;5.10;4.60;;;742.60;2304.00;;;;;;5094908;28;20024;-77
2023/07/31 11:25:33;;;;;;;6.45;4.75;;;743.00;2329.60;;;;;;5092923;28;20024;-79
2023/07/31 11:28:06;;;;;;;4.85;3.80;;;743.00;2329.60;;;;;;5093692;28;20028;-79
2023/07/31 11:30:38;;;;;;;4.97;3.90;;;742.70;2252.80;;;;;;5093613;28;20107;-78
2023/07/31 11:33:04;;;;;;;;;;;742.60;2278.40;;;;;;5093783;28;20028;-77
2023/07/31 11:35:32;;;;;;;4.38;3.75;;;742.40;2304.00;;;;;;5093218;28;19909;-78
2023/07/31 11:37:57;;;;;;;4.50;3.80;;;717.50;2252.80;;;;;;5093593;28;20027;-77
2023/07/31 11:40:28;;;;;;;4.22;3.83;;;717.30;2304.00;;;;;;5094021;28;20020;-79
2023/07/31 11:43:03;;;;;;;4.80;4.30;;;717.20;2355.20;;;;;;5093412;28;20039;-78
2023/07/31 11:45:30;;;;;;;8.57;4.30;;;717.10;2329.60;;;;;;5078390;28;20032;-78
2023/07/31 11:47:57;;;;;;;5.60;5.10;;;716.90;2329.60;;;;;;5074369;28;20028;-79
2023/07/31 11:50:26;;;;;;;13.82;5.00;;;716.80;2380.80;;;;;;5073155;28;20492;-78
2023/07/31 11:53:04;;;;;;;5.85;4.97;;;692.10;2329.60;;;;;;5073959;28;20521;-76
2023/07/31 11:55:30;;;;;;;4.97;4.43;;;692.10;2355.20;;;;;;5084288;28;20021;-77
2023/07/31 11:57:58;;;;;;;11.52;10.35;;;717.00;2355.20;;;;;;5089343;28;20031;-78
2023/07/31 12:00:24;;;;;;;6.35;5.68;;;716.90;2380.80;;;;;;5092612;28;20039;-78
2023/07/31 12:02:51;;;;;;;6.65;5.95;;;717.00;2380.80;;;;;;5094426;28;20028;-79
2023/07/31 12:05:17;;;;;;;5.55;5.00;;;717.00;2380.80;;;;;;5093076;28;20494;-79
2023/07/31 12:07:48;;;;;;;5.78;5.18;;;717.10;2406.40;;;;;;5093326;28;20340;-79
2023/07/31 12:10:29;;;;;;;5.80;5.20;;;717.20;2380.80;;;;;;5092695;28;20075;-78
2023/07/31 12:13:10;;;;;;;6.50;5.90;;;742.40;2406.40;;;;;;5093139;28;20077;-80
2023/07/31 12:15:41;;;;;;;8.68;5.70;;;743.10;2304.00;;;;;;5092468;28;20035;-78
2023/07/31 12:18:13;;;;;;;5.82;4.78;;;768.30;2252.80;;;;;;5093571;28;20036;-80
2023/07/31 12:20:46;;;;;;;;;;;768.00;2278.40;;;;;;5092492;28;20024;-80